Time;durP1;ratioP1;P1;durP2;ratioP2;P2;SDS_P1;SDS_P2;PMS_P1;PMS_P2;Temp;Humidity;BMP_temperature;BMP_pressure;BME280_temperature;BME280_humidity;BME280_pressure;Samples;Min_cycle;Max_cycle;Signal;HPM_P1;HPM_P2
2022/06/10 00:02:23;;;;;;;16.15;10.48;;;16.50;1.00;;;;;;5033423;28;20719;-91
2022/06/10 00:04:50;;;;;;;13.38;9.88;;;16.40;1.00;;;;;;5033657;28;20276;-91
2022/06/10 00:07:16;;;;;;;12.87;10.27;;;16.40;99.90;;;;;;5033541;28;20205;-90
2022/06/10 00:09:44;;;;;;;14.07;10.40;;;16.30;99.90;;;;;;5033334;28;20203;-92
2022/06/10 00:12:11;;;;;;;16.57;10.13;;;16.20;1.00;;;;;;5033306;28;20683;-90
2022/06/10 00:14:38;;;;;;;17.57;10.57;;;16.20;1.00;;;;;;5033331;28;20202;-91
2022/06/10 00:17:07;;;;;;;13.30;10.30;;;16.10;99.90;;;;;;5032817;28;20278;-90
2022/06/10 00:19:34;;;;;;;17.37;11.30;;;16.00;99.90;;;;;;5033340;28;20695;-92
2022/06/10 00:22:01;;;;;;;14.80;10.33;;;16.00;99.90;;;;;;5033236;28;20294;-90
2022/06/10 00:24:28;;;;;;;16.37;10.90;;;16.00;99.90;;;;;;5033317;28;20786;-91
2022/06/10 00:26:55;;;;;;;14.53;10.70;;;15.90;99.90;;;;;;5033087;28;20747;-91
2022/06/10 00:29:22;;;;;;;13.83;11.00;;;15.90;1.00;;;;;;5033056;28;20250;-91
2022/06/10 00:31:49;;;;;;;19.30;10.60;;;15.80;1.00;;;;;;5033229;28;20308;-91
2022/06/10 00:34:19;;;;;;;16.53;10.90;;;15.80;1.00;;;;;;5033151;28;20239;-92
2022/06/10 00:36:46;;;;;;;15.57;11.00;;;15.70;1.00;;;;;;5033236;28;20203;-92
2022/06/10 00:39:13;;;;;;;18.87;11.50;;;15.70;1.00;;;;;;5032984;28;20646;-91
2022/06/10 00:41:41;;;;;;;17.17;10.83;;;15.70;1.00;;;;;;5032961;28;20239;-90
2022/06/10 00:44:36;;;;;;;15.17;11.50;;;15.70;1.00;;;;;;5032946;28;20195;-92
2022/06/10 00:47:05;;;;;;;18.97;11.77;;;15.60;1.00;;;;;;5033044;28;20275;-91
2022/06/10 00:49:34;;;;;;;21.80;11.57;;;15.60;1.00;;;;;;5032717;28;20232;-91
2022/06/10 00:52:01;;;;;;;18.63;11.70;;;15.50;1.00;;;;;;5032877;28;20489;-91
2022/06/10 00:54:35;;;;;;;16.30;11.37;;;15.50;1.00;;;;;;5032754;28;20241;-90
2022/06/10 00:57:09;;;;;;;14.53;11.30;;;15.50;6.40;;;;;;5032733;28;20208;-90
2022/06/10 00:59:41;;;;;;;14.37;11.43;;;15.50;73.10;;;;;;5032773;28;20239;-92
2022/06/10 01:02:11;;;;;;;15.70;11.50;;;15.50;18.20;;;;;;5033089;28;20208;-91
2022/06/10 01:04:40;;;;;;;16.43;11.37;;;15.50;55.40;;;;;;5033046;28;20258;-92
2022/06/10 01:07:08;;;;;;;16.43;10.73;;;15.40;1.00;;;;;;5032982;28;20209;-91
2022/06/10 01:09:37;;;;;;;14.63;10.57;;;15.40;1.00;;;;;;5032785;28;20282;-92
2022/06/10 01:12:28;;;;;;;19.27;11.73;;;15.30;90.40;;;;;;5032898;28;20283;-91
2022/06/10 01:15:07;;;;;;;16.63;11.60;;;15.30;99.90;;;;;;5019611;28;20200;-92
2022/06/10 01:17:46;;;;;;;16.57;11.20;;;15.30;92.00;;;;;;5032762;28;20202;-91
2022/06/10 01:20:28;;;;;;;16.27;12.07;;;15.20;72.70;;;;;;5032600;28;20247;-91
2022/06/10 01:23:25;;;;;;;16.93;11.80;;;15.20;99.90;;;;;;5032544;28;20232;-91
2022/06/10 01:26:14;;;;;;;17.70;11.93;;;15.20;99.90;;;;;;5032762;28;20270;-92
2022/06/10 01:29:06;;;;;;;19.13;12.47;;;15.10;99.90;;;;;;5035126;28;20183;-91
2022/06/10 01:31:39;;;;;;;17.30;12.27;;;15.10;99.90;;;;;;5032760;28;20296;-92
2022/06/10 01:34:20;;;;;;;18.83;12.13;;;15.00;99.90;;;;;;5036357;28;20179;-91
2022/06/10 01:36:53;;;;;;;16.80;12.73;;;15.10;99.90;;;;;;5036391;28;20274;-91
2022/06/10 01:39:30;;;;;;;19.70;12.37;;;15.10;99.90;;;;;;5036363;28;20302;-91
2022/06/10 01:42:06;;;;;;;17.67;12.70;;;15.00;1.00;;;;;;5036490;28;20541;-90
2022/06/10 01:44:40;;;;;;;20.07;13.40;;;15.00;99.90;;;;;;5036480;28;20660;-92
2022/06/10 01:47:16;;;;;;;21.03;12.80;;;15.00;99.90;;;;;;5036175;28;20220;-92
2022/06/10 01:49:50;;;;;;;21.33;12.50;;;15.00;99.90;;;;;;5036353;28;20280;-91
2022/06/10 01:52:23;;;;;;;19.33;12.60;;;14.90;99.90;;;;;;5036407;28;20238;-91
2022/06/10 01:54:54;;;;;;;18.83;12.17;;;14.90;99.90;;;;;;5036259;28;20298;-91
2022/06/10 01:57:26;;;;;;;18.83;12.53;;;14.90;1.00;;;;;;5036283;28;20274;-91
2022/06/10 01:59:58;;;;;;;18.37;12.63;;;14.80;1.00;;;;;;5035989;28;20249;-91
2022/06/10 02:02:33;;;;;;;25.20;13.37;;;14.80;1.00;;;;;;5035805;28;20203;-92
2022/06/10 02:05:06;;;;;;;20.33;13.30;;;14.80;1.00;;;;;;5036005;28;20632;-92
2022/06/10 02:07:37;;;;;;;20.03;12.00;;;14.80;1.00;;;;;;5035658;28;20621;-91
2022/06/10 02:10:13;;;;;;;20.23;13.23;;;14.70;1.00;;;;;;5035812;28;20254;-91
2022/06/10 02:12:43;;;;;;;20.87;13.27;;;14.70;1.00;;;;;;5035794;28;20559;-91
2022/06/10 02:15:16;;;;;;;20.07;12.40;;;14.70;1.00;;;;;;5035660;28;20726;-91
2022/06/10 02:17:48;;;;;;;20.37;12.07;;;14.70;1.00;;;;;;5035939;28;20199;-91
2022/06/10 02:20:19;;;;;;;19.43;12.27;;;14.70;1.00;;;;;;5035557;28;20247;-91
2022/06/10 02:22:49;;;;;;;21.13;13.10;;;14.70;1.00;;;;;;5035806;28;20569;-92
2022/06/10 02:25:20;;;;;;;19.47;12.97;;;14.70;1.00;;;;;;5035719;28;20567;-91
2022/06/10 02:27:51;;;;;;;19.47;12.57;;;14.70;1.00;;;;;;5035563;28;20229;-91
2022/06/10 02:30:23;;;;;;;20.80;12.03;;;14.70;1.00;;;;;;5035359;28;20212;-90
2022/06/10 02:32:52;;;;;;;17.80;12.30;;;14.70;1.00;;;;;;5035460;28;20197;-90
2022/06/10 02:35:19;;;;;;;19.23;13.00;;;14.60;1.00;;;;;;5035282;28;20256;-91
2022/06/10 02:37:55;;;;;;;19.10;12.43;;;14.60;1.00;;;;;;5035114;28;20278;-91
2022/06/10 02:40:29;;;;;;;30.90;22.17;;;14.60;1.00;;;;;;5034298;28;20231;-91
2022/06/10 02:43:03;;;;;;;31.43;21.30;;;14.60;1.00;;;;;;5035179;28;20273;-91
2022/06/10 02:45:36;;;;;;;21.83;13.87;;;14.60;1.00;;;;;;5035432;28;20298;-89
2022/06/10 02:48:10;;;;;;;17.10;12.27;;;14.60;1.00;;;;;;5034853;28;20286;-91
2022/06/10 02:50:39;;;;;;;17.80;11.23;;;14.60;1.00;;;;;;5034910;28;20198;-91
2022/06/10 02:53:08;;;;;;;19.87;11.37;;;14.60;1.00;;;;;;5035214;28;20202;-91
2022/06/10 02:55:35;;;;;;;16.50;11.57;;;14.60;1.00;;;;;;5037928;28;20663;-90
2022/06/10 03:01:16;;;;;;;17.60;11.70;;;14.60;1.00;;;;;;5035010;28;20202;-90
2022/06/10 03:04:15;;;;;;;15.50;11.87;;;14.60;54.00;;;;;;5034292;28;20231;-89
2022/06/10 03:06:59;;;;;;;19.80;11.33;;;14.60;1.00;;;;;;5034744;28;20232;-89
2022/06/10 03:09:40;;;;;;;17.80;11.57;;;14.60;1.00;;;;;;5037956;28;20244;-90
2022/06/10 03:12:19;;;;;;;17.17;13.10;;;14.60;1.00;;;;;;5054423;28;20281;-91
2022/06/10 03:15:04;;;;;;;18.40;13.80;;;14.60;99.90;;;;;;5056554;28;20529;-88
2022/06/10 03:17:40;;;;;;;21.53;13.50;;;14.70;1.00;;;;;;5057306;28;20200;-91
2022/06/10 03:20:19;;;;;;;23.50;14.73;;;14.80;99.90;;;;;;5056661;28;20224;-89
2022/06/10 03:23:10;;;;;;;20.63;14.47;;;14.90;1.00;;;;;;5053434;28;20619;-89
2022/06/10 03:25:42;;;;;;;19.63;13.70;;;15.00;1.00;;;;;;5031716;28;20287;-88
2022/06/10 03:28:13;;;;;;;19.90;12.93;;;15.10;99.90;;;;;;5034050;28;20258;-89
2022/06/10 03:30:48;;;;;;;17.37;13.13;;;15.20;99.90;;;;;;5044445;28;20275;-89
2022/06/10 03:33:21;;;;;;;17.33;12.63;;;15.30;1.00;;;;;;5054385;28;20545;-87
2022/06/10 03:35:53;;;;;;;18.00;12.73;;;15.40;1.00;;;;;;5054179;28;20192;-88
2022/06/10 03:38:20;;;;;;;17.77;12.80;;;15.40;1.00;;;;;;5054076;28;20269;-88
2022/06/10 03:40:53;;;;;;;19.43;13.17;;;15.40;1.00;;;;;;5054118;28;20255;-90
2022/06/10 03:43:21;;;;;;;17.47;12.47;;;15.50;1.00;;;;;;5053875;28;20232;-88
2022/06/10 03:45:57;;;;;;;20.93;12.70;;;15.50;1.00;;;;;;5053149;28;20289;-92
2022/06/10 03:48:25;;;;;;;15.63;12.27;;;15.60;1.00;;;;;;5053838;28;20547;-88
2022/06/10 03:50:54;;;;;;;18.80;12.63;;;15.60;1.00;;;;;;5053044;28;20302;-88
2022/06/10 03:53:24;;;;;;;15.80;11.83;;;15.60;1.00;;;;;;5054842;28;20196;-90
2022/06/10 03:55:54;;;;;;;16.43;12.03;;;15.60;1.00;;;;;;5062097;28;20218;-93
2022/06/10 03:58:24;;;;;;;16.17;12.33;;;15.70;1.00;;;;;;5075899;28;20192;-92
2022/06/10 04:03:59;;;;;;;16.90;13.03;;;15.90;1.00;;;;;;4898405;29;20238;-93
2022/06/10 04:06:28;;;;;;;22.08;13.32;;;16.20;1.00;;;;;;4938956;29;20602;-88
2022/06/10 04:08:55;;;;;;;15.68;10.95;;;16.80;1.00;;;;;;4953628;29;20207;-90
2022/06/10 04:11:22;;;;;;;;;;;17.80;1.00;;;;;;5052864;28;20162;-89
2022/06/10 04:13:48;;;;;;;;;;;18.80;1.00;;;;;;5053783;28;20274;-90
2022/06/10 04:16:15;;;;;;;8.27;6.10;;;19.80;99.90;;;;;;5055764;28;20115;-92
2022/06/10 04:18:42;;;;;;;8.45;5.65;;;20.20;99.90;;;;;;5053176;28;20224;-89
2022/06/10 04:21:09;;;;;;;7.05;5.50;;;20.10;1.00;;;;;;5040492;28;20216;-88
2022/06/10 04:23:38;;;;;;;9.15;5.25;;;19.80;99.90;;;;;;5053061;28;20220;-88
2022/06/10 04:26:05;;;;;;;6.45;5.38;;;19.50;1.00;;;;;;5052862;28;20205;-90
2022/06/10 04:28:32;;;;;;;8.38;5.40;;;19.30;1.00;;;;;;5052797;28;20231;-90
2022/06/10 04:30:59;;;;;;;9.10;4.85;;;19.30;1.00;;;;;;5052321;28;20214;-88
2022/06/10 04:33:26;;;;;;;10.25;5.03;;;19.50;1.00;;;;;;5052839;28;20563;-90
2022/06/10 04:35:53;;;;;;;7.15;4.93;;;19.70;1.00;;;;;;5052589;28;20658;-90
2022/06/10 04:38:23;;;;;;;9.93;5.32;;;19.80;99.90;;;;;;5052968;28;20290;-89
2022/06/10 04:40:51;;;;;;;10.13;6.80;;;19.60;1.00;;;;;;5053285;28;20300;-89
2022/06/10 04:43:19;;;;;;;13.65;9.20;;;19.60;99.90;;;;;;5040674;28;20207;-88
2022/06/10 04:45:51;;;;;;;20.50;12.32;;;19.60;1.00;;;;;;5032907;28;20221;-89
2022/06/10 04:48:19;;;;;;;47.10;20.98;;;19.40;1.00;;;;;;5033016;28;20175;-88
2022/06/10 04:50:47;;;;;;;36.75;16.95;;;19.30;1.00;;;;;;5032977;28;20202;-90
2022/06/10 04:53:14;;;;;;;16.17;8.32;;;19.30;1.00;;;;;;5032582;28;20197;-88
2022/06/10 04:55:42;;;;;;;20.73;10.73;;;19.30;1.00;;;;;;5032781;28;20210;-89
2022/06/10 04:58:10;;;;;;;32.78;15.02;;;19.20;1.00;;;;;;5032969;28;20644;-90
2022/06/10 05:00:41;;;;;;;22.23;10.90;;;19.30;1.00;;;;;;5032551;28;20248;-88
2022/06/10 05:03:10;;;;;;;46.63;19.92;;;19.30;1.00;;;;;;5032290;28;20272;-88
2022/06/10 05:05:37;;;;;;;19.63;10.23;;;19.10;1.00;;;;;;5033413;28;20251;-88
2022/06/10 05:08:07;;;;;;;19.77;9.05;;;19.10;1.00;;;;;;5032705;28;20284;-86
2022/06/10 05:10:34;;;;;;;21.30;10.75;;;19.10;1.00;;;;;;5038707;28;20209;-87
2022/06/10 05:13:01;;;;;;;14.68;8.20;;;19.10;1.00;;;;;;5051692;28;20201;-85
2022/06/10 05:15:29;;;;;;;28.05;12.38;;;19.10;1.00;;;;;;5052045;28;20626;-88
2022/06/10 05:17:58;;;;;;;13.15;7.95;;;19.10;1.00;;;;;;5052316;28;20192;-88
2022/06/10 05:20:29;;;;;;;24.17;9.65;;;19.10;1.00;;;;;;5039905;28;20221;-91
2022/06/10 05:22:56;;;;;;;9.73;5.47;;;19.10;1.00;;;;;;5031750;28;20281;-90
2022/06/10 05:25:23;;;;;;;10.48;5.68;;;19.00;99.90;;;;;;5032295;28;20636;-90
2022/06/10 05:27:51;;;;;;;44.50;19.35;;;18.90;99.90;;;;;;5034106;28;20236;-92
2022/06/10 05:30:41;;;;;;;14.10;7.68;;;18.80;99.90;;;;;;5055637;28;20193;-91
2022/06/10 05:33:17;;;;;;;8.82;5.13;;;19.00;1.00;;;;;;5052980;28;20193;-92
2022/06/10 05:45:37;;;;;;;12.07;8.70;;;21.10;1.00;;;;;;4863123;29;20177;-91
2022/06/10 05:48:06;;;;;;;5.07;3.83;;;20.70;1.00;;;;;;4935762;28;20208;-88
2022/06/10 05:50:36;;;;;;;5.63;4.65;;;20.50;99.90;;;;;;5031931;28;20280;-88
2022/06/10 05:53:17;;;;;;;8.82;4.40;;;20.60;99.90;;;;;;5038361;28;20186;-92
2022/06/10 05:55:44;;;;;;;4.40;2.97;;;21.00;99.90;;;;;;5043916;28;20170;-92
2022/06/10 05:58:11;;;;;;;5.18;3.00;;;21.10;1.00;;;;;;5031726;28;20197;-91
2022/06/10 06:00:38;;;;;;;3.85;3.15;;;21.10;1.00;;;;;;5033717;28;20220;-87
2022/06/10 06:03:07;;;;;;;5.65;2.92;;;21.00;1.00;;;;;;5039370;28;20265;-89
2022/06/10 06:05:39;;;;;;;3.85;2.92;;;21.10;1.00;;;;;;5051677;28;20190;-93
2022/06/10 06:10:56;;;;;;;4.28;2.90;;;21.30;1.00;;;;;;5042201;28;20224;-88
2022/06/10 06:13:23;;;;;;;5.63;3.55;;;21.40;99.90;;;;;;5043810;28;20185;-89
2022/06/10 06:15:50;;;;;;;7.25;3.78;;;21.20;91.30;;;;;;5039491;28;20190;-91
2022/06/10 06:18:23;;;;;;;5.13;3.65;;;20.90;55.00;;;;;;5040870;28;20221;-90
2022/06/10 06:20:50;;;;;;;8.55;3.42;;;20.70;99.90;;;;;;5047373;28;20248;-92
2022/06/10 06:23:17;;;;;;;4.60;3.10;;;20.40;99.90;;;;;;5044261;28;20228;-90
2022/06/10 06:26:03;;;;;;;3.75;2.53;;;20.40;1.00;;;;;;5042399;28;20225;-89
2022/06/10 06:28:30;;;;;;;4.00;2.63;;;21.10;1.00;;;;;;5046262;28;20185;-90
2022/06/10 06:30:57;;;;;;;5.55;2.88;;;21.50;99.90;;;;;;5043773;28;20193;-89
2022/06/10 06:33:25;;;;;;;4.65;2.95;;;21.60;99.90;;;;;;5043599;28;20208;-90
2022/06/10 06:35:55;;;;;;;4.15;2.17;;;21.40;1.00;;;;;;5044964;28;20230;-89
2022/06/10 06:38:23;;;;;;;4.13;2.40;;;21.10;1.00;;;;;;5035522;28;20292;-89
2022/06/10 06:40:50;;;;;;;4.53;2.33;;;20.90;1.00;;;;;;5034814;28;20209;-90
2022/06/10 06:43:17;;;;;;;5.20;3.03;;;21.00;99.90;;;;;;5038063;28;20209;-90
2022/06/10 06:45:44;;;;;;;3.80;2.25;;;21.70;1.00;;;;;;5036209;28;20071;-91
2022/06/10 06:48:14;;;;;;;3.67;2.28;;;22.60;99.90;;;;;;5044641;28;20717;-90
2022/06/10 06:50:45;;;;;;;;;;;23.00;1.00;;;;;;5042012;28;20185;-93
2022/06/10 06:53:34;;;;;;;3.90;2.28;;;23.00;1.00;;;;;;5036156;28;20276;-94
2022/06/10 06:56:01;;;;;;;2.92;1.90;;;23.20;1.00;;;;;;5041249;28;20266;-89
2022/06/10 06:58:28;;;;;;;2.95;2.05;;;24.10;1.00;;;;;;5034366;28;20256;-89
2022/06/10 07:00:56;;;;;;;6.97;2.30;;;24.70;1.00;;;;;;5034615;28;20068;-89
2022/06/10 07:03:23;;;;;;;2.35;2.05;;;25.20;99.90;;;;;;5036758;28;20268;-90
2022/06/10 07:05:52;;;;;;;3.38;2.38;;;25.30;99.90;;;;;;5034613;28;20197;-90
2022/06/10 07:08:20;;;;;;;3.75;2.53;;;25.10;99.90;;;;;;5037679;28;20201;-91
2022/06/10 07:10:47;;;;;;;3.50;2.15;;;24.80;99.90;;;;;;5034329;28;20198;-91
2022/06/10 07:13:15;;;;;;;3.08;1.98;;;24.70;99.90;;;;;;5034484;28;20229;-88
2022/06/10 07:15:52;;;;;;;4.35;1.92;;;24.70;99.90;;;;;;5034869;28;20198;-90
2022/06/10 07:18:19;;;;;;;2.05;1.80;;;24.40;99.90;;;;;;5037111;28;20288;-89
2022/06/10 07:20:46;;;;;;;3.25;1.92;;;24.00;99.90;;;;;;5033981;28;20679;-88
2022/06/10 07:23:14;;;;;;;2.92;2.20;;;23.70;99.90;;;;;;5034167;28;20289;-93
2022/06/10 07:25:41;;;;;;;2.17;1.90;;;23.50;99.90;;;;;;5034117;28;20249;-88
2022/06/10 07:28:09;;;;;;;5.90;2.30;;;23.30;99.90;;;;;;5033837;28;20194;-88
2022/06/10 07:30:36;;;;;;;2.75;2.10;;;23.10;99.90;;;;;;5033917;28;20660;-88
2022/06/10 07:33:03;;;;;;;2.35;1.80;;;22.80;99.90;;;;;;5033895;28;20215;-88
2022/06/10 07:35:31;;;;;;;2.85;1.85;;;22.70;99.90;;;;;;5034055;28;20190;-90
2022/06/10 07:37:58;;;;;;;3.75;2.10;;;22.90;99.90;;;;;;5034218;28;20284;-88
2022/06/10 07:43:13;;;;;;;3.95;2.20;;;23.50;99.90;;;;;;5033845;28;20177;-90
2022/06/10 07:45:41;;;;;;;2.30;2.10;;;23.40;99.90;;;;;;5033637;28;20194;-89
2022/06/10 07:48:10;;;;;;;2.92;1.88;;;23.40;99.90;;;;;;5033681;28;20217;-88
2022/06/10 07:50:38;;;;;;;4.97;1.65;;;24.20;1.00;;;;;;5033752;28;20206;-88
2022/06/10 07:53:07;;;;;;;6.40;2.30;;;25.20;99.90;;;;;;5033928;28;20217;-89
2022/06/10 07:55:35;;;;;;;14.90;8.55;;;26.10;99.90;;;;;;5033537;28;20201;-89
2022/06/10 07:58:02;;;;;;;11.63;7.28;;;26.40;99.90;;;;;;5033569;28;20374;-89
2022/06/10 08:00:30;;;;;;;4.35;2.17;;;26.30;99.90;;;;;;5035307;28;20309;-91
2022/06/10 08:02:58;;;;;;;3.90;2.03;;;26.10;99.90;;;;;;5048958;28;20213;-88
2022/06/10 08:05:25;;;;;;;2.47;1.88;;;25.70;99.90;;;;;;5033045;28;20689;-89
2022/06/10 08:07:52;;;;;;;2.08;1.85;;;25.30;99.90;;;;;;5047117;28;20202;-88
2022/06/10 08:10:22;;;;;;;2.90;2.03;;;24.90;99.90;;;;;;5046081;28;20186;-90
2022/06/10 08:12:50;;;;;;;4.15;2.25;;;24.50;99.90;;;;;;5042443;28;20593;-91
2022/06/10 08:15:22;;;;;;;2.75;1.65;;;24.90;99.90;;;;;;5042280;28;20197;-93
2022/06/10 08:17:49;;;;;;;2.92;1.95;;;25.70;99.90;;;;;;5044908;28;20177;-89
2022/06/10 08:22:32;;;;;;;23.40;13.90;;;26.70;99.90;;;;;;5039111;28;20260;-88
2022/06/10 08:23:25;;;;;;;2.22;1.73;;;27.20;99.90;;;;;;5039774;28;20640;-93
2022/06/10 08:25:54;;;;;;;3.95;1.40;;;27.60;99.30;;;;;;5032961;28;20244;-88
2022/06/10 08:28:23;;;;;;;1.90;1.58;;;27.80;77.00;;;;;;5032629;28;20726;-91
2022/06/10 08:30:51;;;;;;;2.70;1.83;;;27.60;57.20;;;;;;5032823;28;20213;-88
2022/06/10 08:33:18;;;;;;;2.40;1.60;;;27.70;56.80;;;;;;5032932;28;20296;-88
2022/06/10 08:35:45;;;;;;;3.50;1.50;;;27.50;43.70;;;;;;5032988;28;20288;-88
2022/06/10 08:38:15;;;;;;;2.00;1.60;;;27.50;53.20;;;;;;5032477;28;20193;-88
2022/06/10 08:40:48;;;;;;;1.92;1.27;;;28.20;54.60;;;;;;5032513;28;20253;-90
2022/06/10 08:43:27;;;;;;;3.47;1.33;;;29.10;52.90;;;;;;5032979;28;20528;-89
2022/06/10 08:46:03;;;;;;;1.95;1.40;;;29.90;39.00;;;;;;5032762;28;20268;-89
2022/06/10 08:48:39;;;;;;;2.95;1.40;;;30.30;25.20;;;;;;5032681;28;20578;-89
2022/06/10 08:51:16;;;;;;;5.32;1.48;;;30.10;7.90;;;;;;5032703;28;20636;-88
2022/06/10 08:54:00;;;;;;;1.50;1.40;;;29.40;2.30;;;;;;5032482;28;20182;-88
2022/06/10 08:56:32;;;;;;;6.75;1.52;;;28.90;2.00;;;;;;5032196;28;20217;-88
2022/06/10 08:59:07;;;;;;;2.00;1.45;;;28.50;1.80;;;;;;5032628;28;20185;-88
2022/06/10 09:01:48;;;;;;;4.45;1.42;;;28.50;3.70;;;;;;5032578;28;20205;-88
2022/06/10 09:04:27;;;;;;;3.00;1.40;;;29.20;8.70;;;;;;5032215;28;20643;-90
2022/06/10 09:06:57;;;;;;;1.75;1.20;;;30.00;3.60;;;;;;5032217;28;20174;-88
2022/06/10 09:09:27;;;;;;;1.38;1.00;;;30.80;4.00;;;;;;5032258;28;20728;-90
2022/06/10 09:12:02;;;;;;;1.10;1.00;;;31.50;1.00;;;;;;5032457;28;20193;-88
2022/06/10 09:14:30;;;;;;;1.27;1.00;;;31.30;1.00;;;;;;5032447;28;20208;-89
2022/06/10 09:17:05;;;;;;;4.55;1.23;;;31.20;1.00;;;;;;5032100;28;20225;-88
2022/06/10 09:19:41;;;;;;;2.00;1.23;;;31.70;1.00;;;;;;5032748;28;20268;-90
2022/06/10 09:22:16;;;;;;;1.77;1.15;;;32.10;1.00;;;;;;5032262;28;20263;-86
2022/06/10 09:24:49;;;;;;;1.80;1.10;;;32.00;1.00;;;;;;5032089;28;20201;-87
2022/06/10 09:27:24;;;;;;;1.55;1.10;;;32.00;1.00;;;;;;5032050;28;20186;-91
2022/06/10 09:30:06;;;;;;;3.03;1.30;;;32.00;1.00;;;;;;5034253;28;20181;-93
2022/06/10 09:32:45;;;;;;;2.92;1.20;;;31.60;1.00;;;;;;5015099;28;20209;-87
2022/06/10 09:35:17;;;;;;;3.28;1.50;;;30.90;1.00;;;;;;5032085;28;20648;-89
2022/06/10 09:37:52;;;;;;;2.25;1.35;;;30.20;1.00;;;;;;5014057;28;20680;-88
2022/06/10 09:40:38;;;;;;;2.42;1.25;;;30.20;1.00;;;;;;5032005;28;20211;-88
2022/06/10 09:43:38;;;;;;;2.35;1.48;;;30.40;1.00;;;;;;5032592;28;20593;-91
2022/06/10 09:46:34;;;;;;;3.78;1.50;;;30.20;1.00;;;;;;5032564;28;20639;-88
2022/06/10 09:49:17;;;;;;;2.63;1.50;;;29.50;1.00;;;;;;5015857;28;20194;-89
2022/06/10 09:51:56;;;;;;;2.67;1.40;;;29.30;1.00;;;;;;5035566;28;20686;-89
2022/06/10 09:54:50;;;;;;;3.15;1.20;;;28.90;1.00;;;;;;5043032;28;20256;-90
2022/06/10 09:57:32;;;;;;;;;;;28.50;1.00;;;;;;5040039;28;20117;-90
2022/06/10 10:00:04;;;;;;;3.90;1.55;;;28.00;1.00;;;;;;5020753;28;20624;-86
2022/06/10 10:02:45;;;;;;;4.00;1.35;;;27.50;1.00;;;;;;5041182;28;21348;-90
2022/06/10 10:05:30;;;;;;;2.03;1.40;;;27.20;1.00;;;;;;5045043;28;20178;-89
2022/06/10 10:08:03;;;;;;;1.98;1.40;;;27.00;1.00;;;;;;5045215;28;20177;-89
2022/06/10 10:10:47;;;;;;;3.00;1.35;;;26.70;1.00;;;;;;5046084;28;20247;-89
2022/06/10 10:13:34;;;;;;;1.98;1.38;;;26.70;1.00;;;;;;5035257;28;20181;-87
2022/06/10 10:16:20;;;;;;;1.88;1.25;;;27.00;1.00;;;;;;5035370;28;20216;-89
2022/06/10 10:19:11;;;;;;;2.53;1.27;;;27.00;1.00;;;;;;5036771;28;20265;-88
2022/06/10 10:21:45;;;;;;;2.83;1.50;;;26.60;1.00;;;;;;5040188;28;20207;-87
2022/06/10 10:24:19;;;;;;;2.38;1.10;;;26.50;1.00;;;;;;5036526;28;20596;-87
2022/06/10 10:26:49;;;;;;;4.70;1.90;;;26.50;1.00;;;;;;5034909;28;20651;-88
2022/06/10 10:29:19;;;;;;;3.05;1.55;;;26.50;1.00;;;;;;5035204;28;20204;-87
2022/06/10 10:31:53;;;;;;;4.60;1.30;;;26.60;1.00;;;;;;5034959;28;20214;-87
2022/06/10 10:34:25;;;;;;;2.40;1.30;;;26.60;1.00;;;;;;5035034;28;20221;-87
2022/06/10 10:36:54;;;;;;;2.85;1.42;;;26.60;1.00;;;;;;5034891;28;20200;-87
2022/06/10 10:39:32;;;;;;;2.78;1.35;;;26.60;1.00;;;;;;5034736;28;20289;-88
2022/06/10 10:42:01;;;;;;;2.22;1.38;;;26.70;1.00;;;;;;5034858;28;20285;-90
2022/06/10 10:44:39;;;;;;;3.78;1.10;;;26.40;1.00;;;;;;5034735;28;20201;-86
2022/06/10 10:47:19;;;;;;;2.10;1.20;;;26.00;1.00;;;;;;5034798;28;20232;-87
2022/06/10 10:49:50;;;;;;;2.10;1.02;;;26.00;1.00;;;;;;5034899;28;20184;-86
2022/06/10 10:52:22;;;;;;;1.67;1.20;;;26.00;1.00;;;;;;5034339;28;20617;-88
2022/06/10 10:54:53;;;;;;;1.50;1.20;;;26.10;1.00;;;;;;5034702;28;20361;-88
2022/06/10 10:57:26;;;;;;;1.70;1.00;;;26.20;1.00;;;;;;5034331;28;20170;-86
2022/06/10 11:00:03;;;;;;;2.40;1.20;;;26.30;1.00;;;;;;5034268;28;20636;-87
2022/06/10 11:02:38;;;;;;;2.75;1.30;;;26.20;1.00;;;;;;5034222;28;20201;-86
2022/06/10 11:05:37;;;;;;;3.15;1.20;;;26.00;1.00;;;;;;5034347;28;20216;-89
2022/06/10 11:08:23;;;;;;;2.47;1.20;;;26.00;1.00;;;;;;4973357;28;20222;-86
2022/06/10 11:11:18;;;;;;;1.70;1.13;;;26.00;1.00;;;;;;5031005;28;20281;-90
2022/06/10 11:13:55;;;;;;;1.38;1.00;;;26.10;1.00;;;;;;5033971;28;20652;-90
2022/06/10 11:16:39;;;;;;;2.40;1.08;;;26.10;1.00;;;;;;5033902;28;20224;-88
2022/06/10 11:19:32;;;;;;;1.20;1.00;;;26.10;1.00;;;;;;5034310;28;20186;-88
2022/06/10 11:22:17;;;;;;;2.00;1.17;;;25.90;1.00;;;;;;5020622;28;20309;-87
2022/06/10 11:24:47;;;;;;;2.30;1.25;;;25.70;1.00;;;;;;5033765;28;20546;-91
2022/06/10 11:27:33;;;;;;;1.75;1.30;;;25.70;1.00;;;;;;5033918;28;20225;-87
2022/06/10 11:30:15;;;;;;;1.20;1.10;;;25.70;1.00;;;;;;5034044;28;20184;-88
2022/06/10 11:32:53;;;;;;;1.95;1.05;;;25.80;1.00;;;;;;5034231;28;20273;-88
2022/06/10 11:35:25;;;;;;;1.98;1.23;;;25.90;1.00;;;;;;5033629;28;20240;-88
2022/06/10 11:37:56;;;;;;;1.98;1.40;;;25.90;1.00;;;;;;5033782;28;20236;-88
2022/06/10 11:40:27;;;;;;;3.25;1.20;;;25.90;1.00;;;;;;5033401;28;20186;-89
2022/06/10 11:43:00;;;;;;;3.08;1.48;;;26.00;1.00;;;;;;5033629;28;20206;-87
2022/06/10 11:45:32;;;;;;;4.35;1.58;;;25.90;1.00;;;;;;5033329;28;20180;-87
2022/06/10 11:48:07;;;;;;;1.90;1.40;;;25.90;1.00;;;;;;5033263;28;20667;-88
2022/06/10 11:50:44;;;;;;;2.03;1.42;;;25.90;1.00;;;;;;5033208;28;20667;-87
2022/06/10 11:53:19;;;;;;;9.45;2.10;;;26.00;1.00;;;;;;5033363;28;20182;-87
2022/06/10 11:55:49;;;;;;;3.70;1.30;;;25.90;1.00;;;;;;5033454;28;20602;-87
2022/06/10 12:01:17;;;;;;;1.40;1.10;;;25.80;1.00;;;;;;5033327;28;20248;-88
2022/06/10 12:03:49;;;;;;;3.15;1.50;;;25.80;1.00;;;;;;5032971;28;20229;-89
2022/06/10 12:06:22;;;;;;;2.08;1.40;;;25.80;1.00;;;;;;5033238;28;20181;-89
2022/06/10 12:09:22;;;;;;;3.90;1.60;;;25.90;1.00;;;;;;5033360;28;20221;-90
2022/06/10 12:12:01;;;;;;;2.90;1.60;;;25.90;1.00;;;;;;5034375;28;20228;-90
2022/06/10 12:14:32;;;;;;;2.10;1.50;;;25.80;1.00;;;;;;5018061;28;20205;-91
2022/06/10 12:17:04;;;;;;;1.50;1.10;;;25.60;1.00;;;;;;5032975;28;20273;-86
2022/06/10 12:19:35;;;;;;;3.35;1.42;;;25.60;1.00;;;;;;5032937;28;20209;-89
2022/06/10 12:22:02;;;;;;;2.38;1.33;;;25.60;1.00;;;;;;5032819;28;20244;-87
2022/06/10 12:24:30;;;;;;;3.60;1.35;;;25.60;1.00;;;;;;5032959;28;20232;-86
2022/06/10 12:27:00;;;;;;;1.80;1.45;;;25.60;1.00;;;;;;5032909;28;20237;-87
2022/06/10 12:29:36;;;;;;;2.78;1.40;;;25.50;1.00;;;;;;5033372;28;20228;-88
2022/06/10 12:32:12;;;;;;;3.33;1.33;;;25.50;1.00;;;;;;5032591;28;20185;-89
2022/06/10 12:34:54;;;;;;;3.20;1.50;;;25.30;1.00;;;;;;5032987;28;20177;-90
2022/06/10 12:37:40;;;;;;;2.95;1.40;;;25.10;1.00;;;;;;5032993;28;20209;-89
2022/06/10 12:40:17;;;;;;;1.80;1.50;;;25.00;1.00;;;;;;5044618;28;20232;-91
2022/06/10 12:42:48;;;;;;;1.77;1.27;;;25.00;1.00;;;;;;5036480;28;20205;-87
2022/06/10 12:45:21;;;;;;;2.22;1.80;;;25.00;1.00;;;;;;5052943;28;20220;-90
2022/06/10 12:47:49;;;;;;;2.38;1.40;;;25.00;1.00;;;;;;5041160;28;20644;-90
2022/06/10 12:50:20;;;;;;;2.33;1.35;;;25.00;1.00;;;;;;5033045;28;20664;-91
2022/06/10 12:53:18;;;;;;;2.60;1.20;;;25.10;1.00;;;;;;5038377;28;20602;-90
2022/06/10 12:55:50;;;;;;;2.22;1.20;;;25.10;1.00;;;;;;5032919;28;20226;-92
2022/06/10 12:58:43;;;;;;;2.50;1.20;;;25.10;1.00;;;;;;5042156;28;20185;-91
2022/06/10 13:01:22;;;;;;;2.72;1.27;;;25.20;1.00;;;;;;5032664;28;20189;-89
2022/06/10 13:03:51;;;;;;;1.92;1.50;;;25.10;1.00;;;;;;5033744;28;20434;-90
2022/06/10 13:06:28;;;;;;;1.48;1.10;;;25.20;1.00;;;;;;5052190;28;20239;-89
2022/06/10 13:08:58;;;;;;;2.28;1.17;;;25.20;1.00;;;;;;5052516;28;20620;-89
2022/06/10 13:11:36;;;;;;;1.98;1.20;;;25.20;1.00;;;;;;5052477;28;20235;-89
2022/06/10 13:14:44;;;;;;;1.20;1.00;;;25.10;1.00;;;;;;5045482;28;20272;-91
2022/06/10 13:17:21;;;;;;;2.35;1.30;;;25.20;1.00;;;;;;5036925;28;20287;-91
2022/06/10 13:20:23;;;;;;;1.20;1.00;;;25.10;1.00;;;;;;5034735;28;20272;-89
2022/06/10 13:23:10;;;;;;;2.03;1.13;;;25.10;1.00;;;;;;5033785;28;20624;-91
2022/06/10 13:25:37;;;;;;;4.68;1.30;;;25.10;1.00;;;;;;5036544;28;20232;-90
2022/06/10 13:28:14;;;;;;;4.30;1.60;;;25.10;1.00;;;;;;5041246;28;20193;-91
2022/06/10 13:30:42;;;;;;;4.40;1.45;;;25.10;1.00;;;;;;5037699;28;20212;-91
2022/06/10 13:33:13;;;;;;;8.77;1.70;;;25.10;1.00;;;;;;5044826;28;20189;-90
2022/06/10 13:35:53;;;;;;;3.38;1.38;;;25.10;1.00;;;;;;5043659;28;20190;-91
2022/06/10 13:44:34;;;;;;;3.20;1.20;;;25.10;1.00;;;;;;5052312;28;20688;-92
2022/06/10 13:47:05;;;;;;;1.98;1.00;;;25.10;1.00;;;;;;5055497;28;20224;-92
2022/06/10 13:49:46;;;;;;;2.33;1.15;;;25.10;1.00;;;;;;5039633;28;20217;-91
2022/06/10 13:52:31;;;;;;;8.57;1.80;;;25.00;1.00;;;;;;5037694;28;20265;-89